CheckWX is a tool to help pilots better visualize weather data.  It is not intended as a substitute for an official pre-flight weather briefing.

00:53:13 UTC

CYQG METAR
Windsor Airport
Windsor, Canada
Current

53 mins ago

CYQG 240000Z AUTO 21010G15KT 9SM CLR 04/M03 A3024 RMK SLP249
Observed
Mar-24 @ 00:00 UTC
Wind
  • 210° at 10 KTS
  • Gusting to 15 KTS
Visibility
9 SM
Flight Rules
VFR
Cloud Levels
  • Clear skies
Temperature
C / 39°F
Dewpoint
-3°C / 27°F
Humidity
61%
Altimeter
30.24" Hg
Pressure
1024.9 hPa
Previous

2 hours ago

CYQG 232300Z AUTO 20011KT 9SM CLR 07/M03 A3023 RMK SLP246
Observed
Mar-23 @ 23:00 UTC
Wind
  • 200° at 11 KTS
Visibility
9 SM
Flight Rules
VFR
Cloud Levels
  • Clear skies
Temperature
C / 45°F
Dewpoint
-3°C / 27°F
Humidity
49%
Altimeter
30.23" Hg
Pressure
1024.6 hPa
Previous

3 hours ago

CYQG 232200Z AUTO 24008KT 230V290 9SM CLR 09/M09 A3024 RMK SLP248
Observed
Mar-23 @ 22:00 UTC
Wind
  • 240° at 8 KTS
Visibility
9 SM
Flight Rules
VFR
Cloud Levels
  • Clear skies
Temperature
C / 48°F
Dewpoint
-9°C / 16°F
Humidity
27%
Altimeter
30.24" Hg
Pressure
1024.8 hPa